sensor_id;sensor_type;location;lat;lon;timestamp;temperature;humidity
12303;DHT22;6214;48.012;7.862;2024-01-10T00:01:05;-2.20;99.90
12303;DHT22;6214;48.012;7.862;2024-01-10T00:03:32;-2.30;99.90
12303;DHT22;6214;48.012;7.862;2024-01-10T00:05:59;-2.30;99.90
12303;DHT22;6214;48.012;7.862;2024-01-10T00:08:26;-2.30;99.90
12303;DHT22;6214;48.012;7.862;2024-01-10T00:10:53;-2.30;99.90
12303;DHT22;6214;48.012;7.862;2024-01-10T00:13:21;-2.10;99.90
12303;DHT22;6214;48.012;7.862;2024-01-10T00:15:48;-2.00;99.90
12303;DHT22;6214;48.012;7.862;2024-01-10T00:18:15;-1.80;99.90
12303;DHT22;6214;48.012;7.862;2024-01-10T00:20:43;-1.70;99.90
12303;DHT22;6214;48.012;7.862;2024-01-10T00:23:09;-1.60;99.90
12303;DHT22;6214;48.012;7.862;2024-01-10T00:25:36;-1.60;99.90
12303;DHT22;6214;48.012;7.862;2024-01-10T00:28:03;-1.70;99.90
12303;DHT22;6214;48.012;7.862;2024-01-10T00:30:30;-1.80;99.90
12303;DHT22;6214;48.012;7.862;2024-01-10T00:32:57;-1.80;99.90
12303;DHT22;6214;48.012;7.862;2024-01-10T00:35:24;-1.90;99.90
12303;DHT22;6214;48.012;7.862;2024-01-10T00:37:51;-2.00;99.90
12303;DHT22;6214;48.012;7.862;2024-01-10T00:40:18;-2.00;99.90
12303;DHT22;6214;48.012;7.862;2024-01-10T00:42:45;-2.00;99.90
12303;DHT22;6214;48.012;7.862;2024-01-10T00:45:11;-2.00;99.90
12303;DHT22;6214;48.012;7.862;2024-01-10T00:50:06;-2.10;99.90
12303;DHT22;6214;48.012;7.862;2024-01-10T00:59:54;-1.70;99.90
12303;DHT22;6214;48.012;7.862;2024-01-10T01:02:21;-1.60;99.90
12303;DHT22;6214;48.012;7.862;2024-01-10T01:04:48;-1.90;99.90
12303;DHT22;6214;48.012;7.862;2024-01-10T01:21:57;-1.90;99.90
12303;DHT22;6214;48.012;7.862;2024-01-10T01:24:24;-2.00;99.90
12303;DHT22;6214;48.012;7.862;2024-01-10T01:26:51;-2.00;99.90
12303;DHT22;6214;48.012;7.862;2024-01-10T01:29:19;-2.00;99.90
12303;DHT22;6214;48.012;7.862;2024-01-10T01:31:47;-2.10;99.90
12303;DHT22;6214;48.012;7.862;2024-01-10T01:34:14;-2.00;99.90
12303;DHT22;6214;48.012;7.862;2024-01-10T01:36:40;-2.10;99.90
12303;DHT22;6214;48.012;7.862;2024-01-10T01:39:07;-2.10;99.90
12303;DHT22;6214;48.012;7.862;2024-01-10T01:41:34;-2.00;99.90
12303;DHT22;6214;48.012;7.862;2024-01-10T01:44:01;-2.00;99.90
12303;DHT22;6214;48.012;7.862;2024-01-10T01:46:28;-2.10;99.90
12303;DHT22;6214;48.012;7.862;2024-01-10T01:48:54;-2.20;99.90
12303;DHT22;6214;48.012;7.862;2024-01-10T01:51:22;-2.20;99.90
12303;DHT22;6214;48.012;7.862;2024-01-10T01:53:50;-2.10;99.90
12303;DHT22;6214;48.012;7.862;2024-01-10T01:56:16;-2.00;99.90
12303;DHT22;6214;48.012;7.862;2024-01-10T01:58:45;-2.10;99.90
12303;DHT22;6214;48.012;7.862;2024-01-10T02:01:12;-2.10;99.90
12303;DHT22;6214;48.012;7.862;2024-01-10T02:03:39;-2.20;99.90
12303;DHT22;6214;48.012;7.862;2024-01-10T02:06:06;-2.10;99.90
12303;DHT22;6214;48.012;7.862;2024-01-10T02:08:34;-2.00;99.90
12303;DHT22;6214;48.012;7.862;2024-01-10T02:11:02;-1.90;99.90
12303;DHT22;6214;48.012;7.862;2024-01-10T02:13:33;-1.80;99.90
12303;DHT22;6214;48.012;7.862;2024-01-10T02:16:00;-1.90;99.90
12303;DHT22;6214;48.012;7.862;2024-01-10T02:18:27;-1.80;99.90
12303;DHT22;6214;48.012;7.862;2024-01-10T02:20:54;-1.70;99.90
12303;DHT22;6214;48.012;7.862;2024-01-10T02:23:21;-1.80;99.90
12303;DHT22;6214;48.012;7.862;2024-01-10T02:25:48;-1.70;99.90
12303;DHT22;6214;48.012;7.862;2024-01-10T02:28:14;-1.70;99.90
12303;DHT22;6214;48.012;7.862;2024-01-10T02:30:41;-1.60;99.90
12303;DHT22;6214;48.012;7.862;2024-01-10T02:33:08;-1.80;99.90
12303;DHT22;6214;48.012;7.862;2024-01-10T02:35:35;-1.40;99.90
12303;DHT22;6214;48.012;7.862;2024-01-10T02:38:03;-1.60;99.90
12303;DHT22;6214;48.012;7.862;2024-01-10T02:47:52;-1.70;99.90
12303;DHT22;6214;48.012;7.862;2024-01-10T02:50:19;-1.60;99.90
12303;DHT22;6214;48.012;7.862;2024-01-10T02:52:46;-1.60;99.90
12303;DHT22;6214;48.012;7.862;2024-01-10T02:57:40;-2.00;99.90
12303;DHT22;6214;48.012;7.862;2024-01-10T03:00:07;-2.10;99.90
12303;DHT22;6214;48.012;7.862;2024-01-10T03:02:34;-2.00;99.90
12303;DHT22;6214;48.012;7.862;2024-01-10T03:05:01;-2.10;99.90
12303;DHT22;6214;48.012;7.862;2024-01-10T03:07:28;-2.20;99.90
12303;DHT22;6214;48.012;7.862;2024-01-10T03:09:55;-2.20;99.90
12303;DHT22;6214;48.012;7.862;2024-01-10T03:12:21;-2.20;99.90
12303;DHT22;6214;48.012;7.862;2024-01-10T03:14:48;-2.20;99.90
12303;DHT22;6214;48.012;7.862;2024-01-10T03:19:42;-2.10;99.90
12303;DHT22;6214;48.012;7.862;2024-01-10T03:22:10;-2.00;99.90
12303;DHT22;6214;48.012;7.862;2024-01-10T03:24:40;-2.00;99.90
12303;DHT22;6214;48.012;7.862;2024-01-10T03:34:29;-2.10;99.90
12303;DHT22;6214;48.012;7.862;2024-01-10T03:36:55;-2.00;99.90
12303;DHT22;6214;48.012;7.862;2024-01-10T03:39:22;-2.00;99.90
12303;DHT22;6214;48.012;7.862;2024-01-10T03:41:49;-2.00;99.90
12303;DHT22;6214;48.012;7.862;2024-01-10T03:44:16;-2.20;99.90
12303;DHT22;6214;48.012;7.862;2024-01-10T03:46:42;-2.30;99.90
12303;DHT22;6214;48.012;7.862;2024-01-10T03:49:09;-2.20;99.90
12303;DHT22;6214;48.012;7.862;2024-01-10T03:59:00;-2.50;99.90
12303;DHT22;6214;48.012;7.862;2024-01-10T04:01:30;-2.30;99.90
12303;DHT22;6214;48.012;7.862;2024-01-10T04:03:57;-2.40;99.90
12303;DHT22;6214;48.012;7.862;2024-01-10T04:06:24;-2.20;99.90
12303;DHT22;6214;48.012;7.862;2024-01-10T04:08:51;-2.20;99.90
12303;DHT22;6214;48.012;7.862;2024-01-10T04:21:07;-2.30;99.90
12303;DHT22;6214;48.012;7.862;2024-01-10T04:23:35;-2.20;99.90
12303;DHT22;6214;48.012;7.862;2024-01-10T04:26:02;-2.40;99.90
12303;DHT22;6214;48.012;7.862;2024-01-10T04:28:29;-2.50;99.90
12303;DHT22;6214;48.012;7.862;2024-01-10T04:30:56;-2.50;99.90
12303;DHT22;6214;48.012;7.862;2024-01-10T04:33:23;-2.50;99.90
12303;DHT22;6214;48.012;7.862;2024-01-10T04:35:50;-2.50;99.90
12303;DHT22;6214;48.012;7.862;2024-01-10T04:38:17;-2.50;99.90
12303;DHT22;6214;48.012;7.862;2024-01-10T04:40:43;-2.60;99.90
12303;DHT22;6214;48.012;7.862;2024-01-10T04:43:10;-3.00;99.90
12303;DHT22;6214;48.012;7.862;2024-01-10T04:45:37;-2.50;99.90
12303;DHT22;6214;48.012;7.862;2024-01-10T04:48:04;-2.50;99.90
12303;DHT22;6214;48.012;7.862;2024-01-10T04:50:31;-2.50;99.90
12303;DHT22;6214;48.012;7.862;2024-01-10T04:52:58;-2.40;99.90
12303;DHT22;6214;48.012;7.862;2024-01-10T04:55:24;-2.40;99.90
12303;DHT22;6214;48.012;7.862;2024-01-10T04:57:51;-2.30;99.90
12303;DHT22;6214;48.012;7.862;2024-01-10T05:00:18;-2.30;99.90
12303;DHT22;6214;48.012;7.862;2024-01-10T05:02:45;-2.30;99.90
12303;DHT22;6214;48.012;7.862;2024-01-10T05:05:12;-2.20;99.90
12303;DHT22;6214;48.012;7.862;2024-01-10T05:07:39;-2.30;99.90
12303;DHT22;6214;48.012;7.862;2024-01-10T05:10:06;-2.30;99.90
12303;DHT22;6214;48.012;7.862;2024-01-10T05:12:33;-2.30;99.90
12303;DHT22;6214;48.012;7.862;2024-01-10T05:14:59;-2.30;99.90
12303;DHT22;6214;48.012;7.862;2024-01-10T05:17:26;-2.30;99.90
12303;DHT22;6214;48.012;7.862;2024-01-10T05:19:53;-2.30;99.90
12303;DHT22;6214;48.012;7.862;2024-01-10T05:22:20;-2.30;99.90
12303;DHT22;6214;48.012;7.862;2024-01-10T05:24:48;-2.30;99.90
12303;DHT22;6214;48.012;7.862;2024-01-10T05:27:15;-2.30;99.90
12303;DHT22;6214;48.012;7.862;2024-01-10T05:29:41;-2.20;99.90
12303;DHT22;6214;48.012;7.862;2024-01-10T05:32:08;-2.30;99.90
12303;DHT22;6214;48.012;7.862;2024-01-10T05:34:35;-2.40;99.90
12303;DHT22;6214;48.012;7.862;2024-01-10T05:37:02;-2.10;99.90
12303;DHT22;6214;48.012;7.862;2024-01-10T05:39:29;-2.10;99.90
12303;DHT22;6214;48.012;7.862;2024-01-10T05:41:57;-2.00;99.90
12303;DHT22;6214;48.012;7.862;2024-01-10T05:44:24;-2.00;99.90
12303;DHT22;6214;48.012;7.862;2024-01-10T05:46:51;-1.80;99.90
12303;DHT22;6214;48.012;7.862;2024-01-10T05:49:18;-1.90;99.90
12303;DHT22;6214;48.012;7.862;2024-01-10T05:51:45;-2.00;99.90
12303;DHT22;6214;48.012;7.862;2024-01-10T05:56:39;-2.00;99.90
12303;DHT22;6214;48.012;7.862;2024-01-10T05:59:06;-2.20;99.90
12303;DHT22;6214;48.012;7.862;2024-01-10T06:01:32;-2.10;99.90
12303;DHT22;6214;48.012;7.862;2024-01-10T06:03:59;-2.10;99.90
12303;DHT22;6214;48.012;7.862;2024-01-10T06:06:26;-2.10;99.90
12303;DHT22;6214;48.012;7.862;2024-01-10T06:08:53;-2.30;99.90
12303;DHT22;6214;48.012;7.862;2024-01-10T06:11:19;-2.20;99.90
12303;DHT22;6214;48.012;7.862;2024-01-10T06:13:46;-2.10;99.90
12303;DHT22;6214;48.012;7.862;2024-01-10T06:16:22;-2.20;99.90
12303;DHT22;6214;48.012;7.862;2024-01-10T06:18:49;-2.00;99.90
12303;DHT22;6214;48.012;7.862;2024-01-10T06:21:16;-1.90;99.90
12303;DHT22;6214;48.012;7.862;2024-01-10T06:23:43;-1.90;99.90
12303;DHT22;6214;48.012;7.862;2024-01-10T06:26:09;-1.80;99.90
12303;DHT22;6214;48.012;7.862;2024-01-10T06:28:37;-1.80;99.90
12303;DHT22;6214;48.012;7.862;2024-01-10T06:31:05;-1.80;99.90
12303;DHT22;6214;48.012;7.862;2024-01-10T06:33:35;-1.90;99.90
12303;DHT22;6214;48.012;7.862;2024-01-10T06:36:02;-2.00;99.90
12303;DHT22;6214;48.012;7.862;2024-01-10T06:38:29;-2.10;99.90
12303;DHT22;6214;48.012;7.862;2024-01-10T06:40:56;-2.20;99.90
12303;DHT22;6214;48.012;7.862;2024-01-10T06:43:23;-2.20;99.90
12303;DHT22;6214;48.012;7.862;2024-01-10T06:45:50;-2.20;99.90
12303;DHT22;6214;48.012;7.862;2024-01-10T06:48:16;-2.20;99.90
12303;DHT22;6214;48.012;7.862;2024-01-10T06:50:45;-2.10;99.90
12303;DHT22;6214;48.012;7.862;2024-01-10T06:53:12;-2.00;99.90
12303;DHT22;6214;48.012;7.862;2024-01-10T06:55:39;-2.20;99.90
12303;DHT22;6214;48.012;7.862;2024-01-10T06:58:06;-2.20;99.90
12303;DHT22;6214;48.012;7.862;2024-01-10T07:00:32;-2.40;99.90
12303;DHT22;6214;48.012;7.862;2024-01-10T07:03:02;-2.40;99.90
12303;DHT22;6214;48.012;7.862;2024-01-10T07:05:29;-2.20;99.90
12303;DHT22;6214;48.012;7.862;2024-01-10T07:07:58;-2.20;99.90
12303;DHT22;6214;48.012;7.862;2024-01-10T07:10:25;-2.20;99.90
12303;DHT22;6214;48.012;7.862;2024-01-10T07:12:55;-2.20;99.90
12303;DHT22;6214;48.012;7.862;2024-01-10T07:15:22;-2.20;99.90
12303;DHT22;6214;48.012;7.862;2024-01-10T07:17:49;-2.30;99.90
12303;DHT22;6214;48.012;7.862;2024-01-10T07:20:16;-2.30;99.90
12303;DHT22;6214;48.012;7.862;2024-01-10T07:22:43;-2.30;99.90
12303;DHT22;6214;48.012;7.862;2024-01-10T07:25:11;-2.30;99.90
12303;DHT22;6214;48.012;7.862;2024-01-10T07:27:41;-2.20;99.90
12303;DHT22;6214;48.012;7.862;2024-01-10T07:30:08;-0.90;99.90
12303;DHT22;6214;48.012;7.862;2024-01-10T07:32:42;-2.20;99.90
12303;DHT22;6214;48.012;7.862;2024-01-10T07:35:10;-2.20;99.90
12303;DHT22;6214;48.012;7.862;2024-01-10T07:37:41;-2.10;99.90
12303;DHT22;6214;48.012;7.862;2024-01-10T07:40:09;-2.20;99.90
12303;DHT22;6214;48.012;7.862;2024-01-10T07:42:40;-2.00;99.90
12303;DHT22;6214;48.012;7.862;2024-01-10T07:45:07;-1.80;99.90
12303;DHT22;6214;48.012;7.862;2024-01-10T07:47:35;-1.70;99.90
12303;DHT22;6214;48.012;7.862;2024-01-10T07:50:08;-1.70;99.90
12303;DHT22;6214;48.012;7.862;2024-01-10T07:52:35;-2.00;99.90
12303;DHT22;6214;48.012;7.862;2024-01-10T07:55:03;-1.80;99.90
12303;DHT22;6214;48.012;7.862;2024-01-10T07:57:31;-1.80;99.90
12303;DHT22;6214;48.012;7.862;2024-01-10T07:59:59;-1.90;99.90
12303;DHT22;6214;48.012;7.862;2024-01-10T08:02:27;-2.10;99.90
12303;DHT22;6214;48.012;7.862;2024-01-10T08:04:54;-2.10;99.90
12303;DHT22;6214;48.012;7.862;2024-01-10T08:07:21;-1.90;99.90
12303;DHT22;6214;48.012;7.862;2024-01-10T08:09:47;-1.90;99.90
12303;DHT22;6214;48.012;7.862;2024-01-10T08:12:14;-1.90;99.90
12303;DHT22;6214;48.012;7.862;2024-01-10T08:14:43;-2.00;99.90
12303;DHT22;6214;48.012;7.862;2024-01-10T08:17:12;-1.90;99.90
12303;DHT22;6214;48.012;7.862;2024-01-10T08:19:39;-2.00;99.90
12303;DHT22;6214;48.012;7.862;2024-01-10T08:22:06;-2.00;99.90
12303;DHT22;6214;48.012;7.862;2024-01-10T08:24:34;-1.90;99.90
12303;DHT22;6214;48.012;7.862;2024-01-10T08:27:01;-1.80;99.90
12303;DHT22;6214;48.012;7.862;2024-01-10T08:29:28;-1.80;99.90
12303;DHT22;6214;48.012;7.862;2024-01-10T08:31:57;-1.80;99.90
12303;DHT22;6214;48.012;7.862;2024-01-10T08:34:24;-2.00;99.90
12303;DHT22;6214;48.012;7.862;2024-01-10T08:36:51;-2.20;99.90
12303;DHT22;6214;48.012;7.862;2024-01-10T08:39:19;-2.20;99.90
12303;DHT22;6214;48.012;7.862;2024-01-10T08:41:46;-2.10;99.90
12303;DHT22;6214;48.012;7.862;2024-01-10T08:44:13;-2.10;99.90
12303;DHT22;6214;48.012;7.862;2024-01-10T08:46:40;-2.00;99.90
12303;DHT22;6214;48.012;7.862;2024-01-10T08:49:07;-2.10;99.90
12303;DHT22;6214;48.012;7.862;2024-01-10T08:51:34;-2.20;99.90
12303;DHT22;6214;48.012;7.862;2024-01-10T08:54:00;-2.10;99.90
12303;DHT22;6214;48.012;7.862;2024-01-10T08:56:28;-2.20;99.90
12303;DHT22;6214;48.012;7.862;2024-01-10T08:58:55;-2.10;99.90
12303;DHT22;6214;48.012;7.862;2024-01-10T09:01:22;-2.00;99.90
12303;DHT22;6214;48.012;7.862;2024-01-10T09:03:50;-1.80;99.90
12303;DHT22;6214;48.012;7.862;2024-01-10T09:06:17;-1.80;99.90
12303;DHT22;6214;48.012;7.862;2024-01-10T09:08:43;-1.60;99.90
12303;DHT22;6214;48.012;7.862;2024-01-10T09:11:10;-1.80;99.90
12303;DHT22;6214;48.012;7.862;2024-01-10T09:13:37;-1.80;99.90
12303;DHT22;6214;48.012;7.862;2024-01-10T09:16:06;-1.80;99.90
12303;DHT22;6214;48.012;7.862;2024-01-10T09:21:00;-1.50;99.90
12303;DHT22;6214;48.012;7.862;2024-01-10T09:23:27;-1.60;99.90
12303;DHT22;6214;48.012;7.862;2024-01-10T09:25:55;-1.50;99.90
12303;DHT22;6214;48.012;7.862;2024-01-10T09:28:22;-1.80;99.90
12303;DHT22;6214;48.012;7.862;2024-01-10T09:30:48;-1.70;99.90
12303;DHT22;6214;48.012;7.862;2024-01-10T09:33:15;-1.80;99.90
12303;DHT22;6214;48.012;7.862;2024-01-10T09:35:42;-1.90;99.90
12303;DHT22;6214;48.012;7.862;2024-01-10T09:38:09;-1.70;99.90
12303;DHT22;6214;48.012;7.862;2024-01-10T09:40:36;-1.40;99.90
12303;DHT22;6214;48.012;7.862;2024-01-10T09:43:05;-1.10;99.90
12303;DHT22;6214;48.012;7.862;2024-01-10T09:45:43;-1.00;99.90
12303;DHT22;6214;48.012;7.862;2024-01-10T09:48:13;-1.30;99.90
12303;DHT22;6214;48.012;7.862;2024-01-10T09:50:40;-1.00;99.90
12303;DHT22;6214;48.012;7.862;2024-01-10T09:53:16;-1.10;99.90
12303;DHT22;6214;48.012;7.862;2024-01-10T09:55:47;-1.30;99.90
12303;DHT22;6214;48.012;7.862;2024-01-10T09:58:14;-1.20;99.90
12303;DHT22;6214;48.012;7.862;2024-01-10T10:00:41;-1.10;99.90
12303;DHT22;6214;48.012;7.862;2024-01-10T10:03:09;-0.60;99.90
12303;DHT22;6214;48.012;7.862;2024-01-10T10:05:39;-0.30;99.90
12303;DHT22;6214;48.012;7.862;2024-01-10T10:08:10;-0.30;99.90
12303;DHT22;6214;48.012;7.862;2024-01-10T10:10:38;-0.50;99.90
12303;DHT22;6214;48.012;7.862;2024-01-10T10:13:10;-0.30;99.90
12303;DHT22;6214;48.012;7.862;2024-01-10T10:15:41;0.30;99.90
12303;DHT22;6214;48.012;7.862;2024-01-10T10:18:13;-0.10;99.90
12303;DHT22;6214;48.012;7.862;2024-01-10T10:20:40;-0.30;99.90
12303;DHT22;6214;48.012;7.862;2024-01-10T10:23:08;-0.10;99.90
12303;DHT22;6214;48.012;7.862;2024-01-10T10:25:43;0.10;99.90
12303;DHT22;6214;48.012;7.862;2024-01-10T10:28:10;0.40;99.90
12303;DHT22;6214;48.012;7.862;2024-01-10T10:30:55;0.30;99.90
12303;DHT22;6214;48.012;7.862;2024-01-10T10:33:22;-0.10;99.90
12303;DHT22;6214;48.012;7.862;2024-01-10T10:35:50;-0.10;99.90
12303;DHT22;6214;48.012;7.862;2024-01-10T10:38:22;0.30;99.90
12303;DHT22;6214;48.012;7.862;2024-01-10T10:40:49;0.00;99.90
12303;DHT22;6214;48.012;7.862;2024-01-10T10:43:18;0.20;99.90
12303;DHT22;6214;48.012;7.862;2024-01-10T10:45:49;0.60;99.90
12303;DHT22;6214;48.012;7.862;2024-01-10T10:48:17;0.30;99.90
12303;DHT22;6214;48.012;7.862;2024-01-10T10:53:37;-0.40;99.90
12303;DHT22;6214;48.012;7.862;2024-01-10T10:56:06;-0.60;99.90
12303;DHT22;6214;48.012;7.862;2024-01-10T10:58:35;-0.20;99.90
12303;DHT22;6214;48.012;7.862;2024-01-10T11:01:04;-0.20;99.90
12303;DHT22;6214;48.012;7.862;2024-01-10T11:03:35;-0.20;99.90
12303;DHT22;6214;48.012;7.862;2024-01-10T11:06:03;0.00;99.90
12303;DHT22;6214;48.012;7.862;2024-01-10T11:08:35;0.00;99.90
12303;DHT22;6214;48.012;7.862;2024-01-10T11:11:06;0.20;99.90
12303;DHT22;6214;48.012;7.862;2024-01-10T11:13:38;-0.10;99.90
12303;DHT22;6214;48.012;7.862;2024-01-10T11:22:59;-0.40;99.90
12303;DHT22;6214;48.012;7.862;2024-01-10T11:25:31;-0.60;99.90
12303;DHT22;6214;48.012;7.862;2024-01-10T11:28:02;-0.40;99.90
12303;DHT22;6214;48.012;7.862;2024-01-10T11:30:36;-0.30;99.90
12303;DHT22;6214;48.012;7.862;2024-01-10T11:33:25;-0.40;99.90
12303;DHT22;6214;48.012;7.862;2024-01-10T11:36:13;-0.50;99.90
12303;DHT22;6214;48.012;7.862;2024-01-10T11:41:12;-0.50;99.90
12303;DHT22;6214;48.012;7.862;2024-01-10T11:43:41;-0.20;99.90
12303;DHT22;6214;48.012;7.862;2024-01-10T11:46:08;-0.20;99.90
12303;DHT22;6214;48.012;7.862;2024-01-10T11:48:37;-0.10;99.90
12303;DHT22;6214;48.012;7.862;2024-01-10T11:51:05;0.10;99.90
12303;DHT22;6214;48.012;7.862;2024-01-10T11:53:43;0.30;99.90
12303;DHT22;6214;48.012;7.862;2024-01-10T11:56:13;0.00;99.90
12303;DHT22;6214;48.012;7.862;2024-01-10T11:59:07;0.50;99.90
12303;DHT22;6214;48.012;7.862;2024-01-10T12:01:36;0.50;99.90
12303;DHT22;6214;48.012;7.862;2024-01-10T12:04:04;0.50;99.90
12303;DHT22;6214;48.012;7.862;2024-01-10T12:06:45;0.30;99.90
12303;DHT22;6214;48.012;7.862;2024-01-10T12:09:12;0.40;99.90
12303;DHT22;6214;48.012;7.862;2024-01-10T12:11:40;0.20;99.90
12303;DHT22;6214;48.012;7.862;2024-01-10T12:14:08;0.50;99.90
12303;DHT22;6214;48.012;7.862;2024-01-10T12:16:35;0.60;99.90
12303;DHT22;6214;48.012;7.862;2024-01-10T12:19:03;0.30;99.90
12303;DHT22;6214;48.012;7.862;2024-01-10T12:21:30;0.10;99.90
12303;DHT22;6214;48.012;7.862;2024-01-10T12:23:57;-0.10;99.90
12303;DHT22;6214;48.012;7.862;2024-01-10T12:26:24;0.10;99.90
12303;DHT22;6214;48.012;7.862;2024-01-10T12:28:58;0.10;99.90
12303;DHT22;6214;48.012;7.862;2024-01-10T12:31:28;0.00;99.90
12303;DHT22;6214;48.012;7.862;2024-01-10T12:33:56;-0.10;99.90
12303;DHT22;6214;48.012;7.862;2024-01-10T12:36:23;0.10;99.90
12303;DHT22;6214;48.012;7.862;2024-01-10T12:38:50;0.00;99.90
12303;DHT22;6214;48.012;7.862;2024-01-10T12:41:18;-0.20;99.90
12303;DHT22;6214;48.012;7.862;2024-01-10T12:43:49;-0.40;99.90
12303;DHT22;6214;48.012;7.862;2024-01-10T12:46:18;-0.10;99.90
12303;DHT22;6214;48.012;7.862;2024-01-10T12:48:45;-0.10;99.90
12303;DHT22;6214;48.012;7.862;2024-01-10T12:51:13;0.20;99.90
12303;DHT22;6214;48.012;7.862;2024-01-10T12:53:42;0.00;99.90
12303;DHT22;6214;48.012;7.862;2024-01-10T12:56:10;-0.30;99.90
12303;DHT22;6214;48.012;7.862;2024-01-10T12:58:41;-0.20;99.90
12303;DHT22;6214;48.012;7.862;2024-01-10T13:01:09;-0.10;99.90
12303;DHT22;6214;48.012;7.862;2024-01-10T13:03:38;0.00;99.90
12303;DHT22;6214;48.012;7.862;2024-01-10T13:06:05;0.00;99.90
12303;DHT22;6214;48.012;7.862;2024-01-10T13:08:32;-0.10;99.90
12303;DHT22;6214;48.012;7.862;2024-01-10T13:10:59;-0.30;99.90
12303;DHT22;6214;48.012;7.862;2024-01-10T13:13:26;-0.10;99.90
12303;DHT22;6214;48.012;7.862;2024-01-10T13:15:54;0.10;99.90
12303;DHT22;6214;48.012;7.862;2024-01-10T13:18:21;0.20;99.90
12303;DHT22;6214;48.012;7.862;2024-01-10T13:20:48;0.40;99.90
12303;DHT22;6214;48.012;7.862;2024-01-10T13:23:15;0.20;99.90
12303;DHT22;6214;48.012;7.862;2024-01-10T13:25:42;0.30;99.90
12303;DHT22;6214;48.012;7.862;2024-01-10T13:28:09;0.20;99.90
12303;DHT22;6214;48.012;7.862;2024-01-10T13:30:39;0.20;99.90
12303;DHT22;6214;48.012;7.862;2024-01-10T13:33:08;0.20;99.90
12303;DHT22;6214;48.012;7.862;2024-01-10T13:35:36;0.20;99.90
12303;DHT22;6214;48.012;7.862;2024-01-10T13:38:04;0.30;99.90
12303;DHT22;6214;48.012;7.862;2024-01-10T13:40:31;0.40;99.90
12303;DHT22;6214;48.012;7.862;2024-01-10T13:43:00;0.50;99.90
12303;DHT22;6214;48.012;7.862;2024-01-10T13:45:30;0.50;99.90
12303;DHT22;6214;48.012;7.862;2024-01-10T13:47:57;0.50;99.90
12303;DHT22;6214;48.012;7.862;2024-01-10T13:50:24;0.40;99.90
12303;DHT22;6214;48.012;7.862;2024-01-10T13:52:51;0.40;99.90
12303;DHT22;6214;48.012;7.862;2024-01-10T13:55:20;0.50;99.90
12303;DHT22;6214;48.012;7.862;2024-01-10T13:57:47;0.40;99.90
12303;DHT22;6214;48.012;7.862;2024-01-10T14:00:14;0.40;99.90
12303;DHT22;6214;48.012;7.862;2024-01-10T14:02:44;0.30;99.90
12303;DHT22;6214;48.012;7.862;2024-01-10T14:05:11;0.40;99.90
12303;DHT22;6214;48.012;7.862;2024-01-10T14:07:38;0.50;99.90
12303;DHT22;6214;48.012;7.862;2024-01-10T14:10:05;0.60;99.90
12303;DHT22;6214;48.012;7.862;2024-01-10T14:12:33;0.40;99.90
12303;DHT22;6214;48.012;7.862;2024-01-10T14:14:59;0.40;99.90
12303;DHT22;6214;48.012;7.862;2024-01-10T14:17:29;0.10;99.90
12303;DHT22;6214;48.012;7.862;2024-01-10T14:19:56;0.10;99.90
12303;DHT22;6214;48.012;7.862;2024-01-10T14:22:22;0.00;99.90
12303;DHT22;6214;48.012;7.862;2024-01-10T14:24:58;0.10;99.90
12303;DHT22;6214;48.012;7.862;2024-01-10T14:27:29;0.20;99.90
12303;DHT22;6214;48.012;7.862;2024-01-10T14:29:56;0.20;99.90
12303;DHT22;6214;48.012;7.862;2024-01-10T14:32:22;0.20;99.90
12303;DHT22;6214;48.012;7.862;2024-01-10T14:34:50;0.20;99.90
12303;DHT22;6214;48.012;7.862;2024-01-10T14:37:17;0.20;99.90
12303;DHT22;6214;48.012;7.862;2024-01-10T14:39:44;0.20;99.90
12303;DHT22;6214;48.012;7.862;2024-01-10T14:42:10;0.30;99.90
12303;DHT22;6214;48.012;7.862;2024-01-10T14:44:38;0.30;99.90
12303;DHT22;6214;48.012;7.862;2024-01-10T14:47:05;0.20;99.90
12303;DHT22;6214;48.012;7.862;2024-01-10T14:49:38;0.10;99.90
12303;DHT22;6214;48.012;7.862;2024-01-10T14:52:06;0.20;99.90
12303;DHT22;6214;48.012;7.862;2024-01-10T14:54:32;0.10;99.90
12303;DHT22;6214;48.012;7.862;2024-01-10T14:56:59;0.20;99.90
12303;DHT22;6214;48.012;7.862;2024-01-10T14:59:26;0.10;99.90
12303;DHT22;6214;48.012;7.862;2024-01-10T15:02:10;0.10;99.90
12303;DHT22;6214;48.012;7.862;2024-01-10T15:04:38;0.00;99.90
12303;DHT22;6214;48.012;7.862;2024-01-10T15:07:06;0.10;99.90
12303;DHT22;6214;48.012;7.862;2024-01-10T15:09:33;0.10;99.90
12303;DHT22;6214;48.012;7.862;2024-01-10T15:12:06;0.00;99.90
12303;DHT22;6214;48.012;7.862;2024-01-10T15:14:37;0.00;99.90
12303;DHT22;6214;48.012;7.862;2024-01-10T15:17:07;-0.10;99.90
12303;DHT22;6214;48.012;7.862;2024-01-10T15:19:36;-0.10;99.90
12303;DHT22;6214;48.012;7.862;2024-01-10T15:22:03;-0.10;99.90
12303;DHT22;6214;48.012;7.862;2024-01-10T15:24:31;-0.10;99.90
12303;DHT22;6214;48.012;7.862;2024-01-10T15:26:57;-0.20;99.90
12303;DHT22;6214;48.012;7.862;2024-01-10T15:29:28;-0.30;99.90
12303;DHT22;6214;48.012;7.862;2024-01-10T15:31:56;-0.30;99.90
12303;DHT22;6214;48.012;7.862;2024-01-10T15:34:23;-0.40;99.90
12303;DHT22;6214;48.012;7.862;2024-01-10T15:36:53;-0.40;99.90
12303;DHT22;6214;48.012;7.862;2024-01-10T15:39:20;-0.40;99.90
12303;DHT22;6214;48.012;7.862;2024-01-10T15:41:48;-0.40;99.90
12303;DHT22;6214;48.012;7.862;2024-01-10T15:44:16;-0.40;99.90
12303;DHT22;6214;48.012;7.862;2024-01-10T15:46:43;-0.50;99.90
12303;DHT22;6214;48.012;7.862;2024-01-10T15:49:11;-0.60;99.90
12303;DHT22;6214;48.012;7.862;2024-01-10T15:51:38;-0.60;99.90
12303;DHT22;6214;48.012;7.862;2024-01-10T15:54:05;-0.60;99.90
12303;DHT22;6214;48.012;7.862;2024-01-10T15:56:32;-0.70;99.90
12303;DHT22;6214;48.012;7.862;2024-01-10T15:59:00;-0.70;99.90
12303;DHT22;6214;48.012;7.862;2024-01-10T16:01:27;-0.70;99.90
12303;DHT22;6214;48.012;7.862;2024-01-10T16:03:54;-0.80;99.90
12303;DHT22;6214;48.012;7.862;2024-01-10T16:06:21;-0.80;99.90
12303;DHT22;6214;48.012;7.862;2024-01-10T16:08:48;-0.90;99.90
12303;DHT22;6214;48.012;7.862;2024-01-10T16:11:15;-1.00;99.90
12303;DHT22;6214;48.012;7.862;2024-01-10T16:13:41;-1.10;99.90
12303;DHT22;6214;48.012;7.862;2024-01-10T16:16:08;-1.10;99.90
12303;DHT22;6214;48.012;7.862;2024-01-10T16:18:36;-1.20;99.90
12303;DHT22;6214;48.012;7.862;2024-01-10T16:21:05;-1.20;99.90
12303;DHT22;6214;48.012;7.862;2024-01-10T16:23:32;-1.30;99.90
12303;DHT22;6214;48.012;7.862;2024-01-10T16:25:59;-1.30;99.90
12303;DHT22;6214;48.012;7.862;2024-01-10T16:28:26;-1.30;99.90
12303;DHT22;6214;48.012;7.862;2024-01-10T16:30:55;-1.30;99.90
12303;DHT22;6214;48.012;7.862;2024-01-10T16:33:22;-1.40;99.90
12303;DHT22;6214;48.012;7.862;2024-01-10T16:35:49;-1.60;99.90
12303;DHT22;6214;48.012;7.862;2024-01-10T16:38:17;-1.50;99.90
12303;DHT22;6214;48.012;7.862;2024-01-10T16:40:44;-1.50;99.90
12303;DHT22;6214;48.012;7.862;2024-01-10T16:43:11;-1.60;99.90
12303;DHT22;6214;48.012;7.862;2024-01-10T16:45:38;-1.50;99.90
12303;DHT22;6214;48.012;7.862;2024-01-10T16:48:05;-1.50;99.90
12303;DHT22;6214;48.012;7.862;2024-01-10T16:50:35;-1.50;99.90
12303;DHT22;6214;48.012;7.862;2024-01-10T16:53:02;-1.50;99.90
12303;DHT22;6214;48.012;7.862;2024-01-10T16:55:30;-1.60;99.90
12303;DHT22;6214;48.012;7.862;2024-01-10T16:57:57;-1.60;99.90
12303;DHT22;6214;48.012;7.862;2024-01-10T17:00:24;-1.70;99.90
12303;DHT22;6214;48.012;7.862;2024-01-10T17:02:51;-1.80;99.90
12303;DHT22;6214;48.012;7.862;2024-01-10T17:05:18;-1.80;99.90
12303;DHT22;6214;48.012;7.862;2024-01-10T17:07:48;-1.80;99.90
12303;DHT22;6214;48.012;7.862;2024-01-10T17:10:15;-1.80;99.90
12303;DHT22;6214;48.012;7.862;2024-01-10T17:12:42;-1.90;99.90